sensor_id;sensor_type;location;lat;lon;timestamp;temperature;humidity
52036;DHT22;38046;49.448;32.074;2023-04-22T00:01:20;10.30;91.90
52036;DHT22;38046;49.448;32.074;2023-04-22T00:03:46;10.30;91.90
52036;DHT22;38046;49.448;32.074;2023-04-22T00:06:12;10.30;91.90
52036;DHT22;38046;49.448;32.074;2023-04-22T00:08:37;10.30;92.00
52036;DHT22;38046;49.448;32.074;2023-04-22T00:11:03;10.30;92.00
52036;DHT22;38046;49.448;32.074;2023-04-22T00:13:29;10.30;91.90
52036;DHT22;38046;49.448;32.074;2023-04-22T00:15:54;10.30;92.00
52036;DHT22;38046;49.448;32.074;2023-04-22T00:18:20;10.20;92.00
52036;DHT22;38046;49.448;32.074;2023-04-22T00:20:46;10.20;92.00
52036;DHT22;38046;49.448;32.074;2023-04-22T00:23:12;10.20;92.00
52036;DHT22;38046;49.448;32.074;2023-04-22T00:25:39;10.20;92.10
52036;DHT22;38046;49.448;32.074;2023-04-22T00:28:05;10.20;92.20
52036;DHT22;38046;49.448;32.074;2023-04-22T00:30:31;10.20;92.20
52036;DHT22;38046;49.448;32.074;2023-04-22T00:32:56;10.20;92.20
52036;DHT22;38046;49.448;32.074;2023-04-22T00:35:22;10.20;92.20
52036;DHT22;38046;49.448;32.074;2023-04-22T00:37:48;10.20;92.20
52036;DHT22;38046;49.448;32.074;2023-04-22T00:40:14;10.10;92.20
52036;DHT22;38046;49.448;32.074;2023-04-22T00:42:42;10.10;92.10
52036;DHT22;38046;49.448;32.074;2023-04-22T00:45:10;10.10;92.10
52036;DHT22;38046;49.448;32.074;2023-04-22T00:47:36;10.10;92.20
52036;DHT22;38046;49.448;32.074;2023-04-22T00:50:03;10.10;92.20
52036;DHT22;38046;49.448;32.074;2023-04-22T00:52:29;10.10;92.30
52036;DHT22;38046;49.448;32.074;2023-04-22T00:54:54;10.10;92.30
52036;DHT22;38046;49.448;32.074;2023-04-22T00:57:20;10.10;92.40
52036;DHT22;38046;49.448;32.074;2023-04-22T00:59:46;10.10;92.40
52036;DHT22;38046;49.448;32.074;2023-04-22T01:02:13;10.10;92.50
52036;DHT22;38046;49.448;32.074;2023-04-22T01:04:38;10.10;92.60
52036;DHT22;38046;49.448;32.074;2023-04-22T01:07:04;10.10;92.60
52036;DHT22;38046;49.448;32.074;2023-04-22T01:09:31;10.10;92.60
52036;DHT22;38046;49.448;32.074;2023-04-22T01:11:56;10.10;92.70
52036;DHT22;38046;49.448;32.074;2023-04-22T01:14:22;10.10;92.50
52036;DHT22;38046;49.448;32.074;2023-04-22T01:16:50;10.10;92.50
52036;DHT22;38046;49.448;32.074;2023-04-22T01:19:16;10.10;92.50
52036;DHT22;38046;49.448;32.074;2023-04-22T01:21:42;10.10;92.40
52036;DHT22;38046;49.448;32.074;2023-04-22T01:24:09;10.00;92.40
52036;DHT22;38046;49.448;32.074;2023-04-22T01:26:36;10.10;92.40
52036;DHT22;38046;49.448;32.074;2023-04-22T01:29:02;10.10;92.70
52036;DHT22;38046;49.448;32.074;2023-04-22T01:31:28;10.10;92.50
52036;DHT22;38046;49.448;32.074;2023-04-22T01:33:54;10.00;92.50
52036;DHT22;38046;49.448;32.074;2023-04-22T01:36:20;10.00;92.50
52036;DHT22;38046;49.448;32.074;2023-04-22T01:38:45;10.10;92.60
52036;DHT22;38046;49.448;32.074;2023-04-22T01:41:12;10.10;92.60
52036;DHT22;38046;49.448;32.074;2023-04-22T01:43:38;10.10;92.60
52036;DHT22;38046;49.448;32.074;2023-04-22T01:46:05;10.10;92.70
52036;DHT22;38046;49.448;32.074;2023-04-22T01:48:31;10.10;92.70
52036;DHT22;38046;49.448;32.074;2023-04-22T01:50:57;10.10;92.60
52036;DHT22;38046;49.448;32.074;2023-04-22T01:53:22;10.10;92.60
52036;DHT22;38046;49.448;32.074;2023-04-22T01:55:48;10.10;92.60
52036;DHT22;38046;49.448;32.074;2023-04-22T01:58:14;10.10;92.60
52036;DHT22;38046;49.448;32.074;2023-04-22T02:00:40;10.10;92.60
52036;DHT22;38046;49.448;32.074;2023-04-22T02:03:05;10.10;92.50
52036;DHT22;38046;49.448;32.074;2023-04-22T02:05:31;10.10;92.40
52036;DHT22;38046;49.448;32.074;2023-04-22T02:07:57;10.10;92.40
52036;DHT22;38046;49.448;32.074;2023-04-22T02:10:22;10.10;92.30
52036;DHT22;38046;49.448;32.074;2023-04-22T02:12:48;10.10;92.10
52036;DHT22;38046;49.448;32.074;2023-04-22T02:15:14;10.10;92.30
52036;DHT22;38046;49.448;32.074;2023-04-22T02:17:40;10.10;92.00
52036;DHT22;38046;49.448;32.074;2023-04-22T02:20:07;10.10;91.90
52036;DHT22;38046;49.448;32.074;2023-04-22T02:22:35;10.10;91.80
52036;DHT22;38046;49.448;32.074;2023-04-22T02:25:02;10.10;91.70
52036;DHT22;38046;49.448;32.074;2023-04-22T02:27:27;10.10;91.80
52036;DHT22;38046;49.448;32.074;2023-04-22T02:29:53;10.10;91.70
52036;DHT22;38046;49.448;32.074;2023-04-22T02:32:19;10.10;91.60
52036;DHT22;38046;49.448;32.074;2023-04-22T02:34:44;10.10;91.50
52036;DHT22;38046;49.448;32.074;2023-04-22T02:37:11;10.10;91.40
52036;DHT22;38046;49.448;32.074;2023-04-22T02:39:37;10.10;91.30
52036;DHT22;38046;49.448;32.074;2023-04-22T02:42:02;10.20;91.30
52036;DHT22;38046;49.448;32.074;2023-04-22T02:44:28;10.20;91.10
52036;DHT22;38046;49.448;32.074;2023-04-22T02:46:54;10.20;90.90
52036;DHT22;38046;49.448;32.074;2023-04-22T02:49:20;10.20;90.70
52036;DHT22;38046;49.448;32.074;2023-04-22T02:51:45;10.20;90.60
52036;DHT22;38046;49.448;32.074;2023-04-22T02:54:11;10.30;90.50
52036;DHT22;38046;49.448;32.074;2023-04-22T02:56:36;10.20;90.40
52036;DHT22;38046;49.448;32.074;2023-04-22T02:59:02;10.30;90.30
52036;DHT22;38046;49.448;32.074;2023-04-22T03:01:28;10.30;90.20
52036;DHT22;38046;49.448;32.074;2023-04-22T03:03:55;10.30;90.10
52036;DHT22;38046;49.448;32.074;2023-04-22T03:06:21;10.30;89.80
52036;DHT22;38046;49.448;32.074;2023-04-22T03:08:46;10.30;89.70
52036;DHT22;38046;49.448;32.074;2023-04-22T03:11:12;10.30;89.50
52036;DHT22;38046;49.448;32.074;2023-04-22T03:13:38;10.30;89.10
52036;DHT22;38046;49.448;32.074;2023-04-22T03:16:04;10.30;88.90
52036;DHT22;38046;49.448;32.074;2023-04-22T03:18:29;10.30;88.80
52036;DHT22;38046;49.448;32.074;2023-04-22T03:20:55;10.30;88.70
52036;DHT22;38046;49.448;32.074;2023-04-22T03:23:21;10.40;88.70
52036;DHT22;38046;49.448;32.074;2023-04-22T03:25:46;10.40;88.60
52036;DHT22;38046;49.448;32.074;2023-04-22T03:28:12;10.40;88.40
52036;DHT22;38046;49.448;32.074;2023-04-22T03:30:38;10.40;88.10
52036;DHT22;38046;49.448;32.074;2023-04-22T03:33:03;10.50;88.00
52036;DHT22;38046;49.448;32.074;2023-04-22T03:35:29;10.50;88.00
52036;DHT22;38046;49.448;32.074;2023-04-22T03:37:55;10.50;88.00
52036;DHT22;38046;49.448;32.074;2023-04-22T03:40:21;10.60;88.20
52036;DHT22;38046;49.448;32.074;2023-04-22T03:42:46;10.70;88.30
52036;DHT22;38046;49.448;32.074;2023-04-22T03:45:12;10.80;88.30
52036;DHT22;38046;49.448;32.074;2023-04-22T03:47:38;10.80;88.30
52036;DHT22;38046;49.448;32.074;2023-04-22T03:50:04;10.90;88.30
52036;DHT22;38046;49.448;32.074;2023-04-22T03:52:30;11.00;88.10
52036;DHT22;38046;49.448;32.074;2023-04-22T03:54:55;11.00;88.20
52036;DHT22;38046;49.448;32.074;2023-04-22T03:57:21;11.10;88.20
52036;DHT22;38046;49.448;32.074;2023-04-22T03:59:46;11.20;88.40
52036;DHT22;38046;49.448;32.074;2023-04-22T04:02:12;11.30;88.50
52036;DHT22;38046;49.448;32.074;2023-04-22T04:04:38;11.30;88.40
52036;DHT22;38046;49.448;32.074;2023-04-22T04:07:03;11.40;88.40
52036;DHT22;38046;49.448;32.074;2023-04-22T04:09:29;11.50;88.10
52036;DHT22;38046;49.448;32.074;2023-04-22T04:11:55;11.60;87.70
52036;DHT22;38046;49.448;32.074;2023-04-22T04:14:21;11.60;87.50
52036;DHT22;38046;49.448;32.074;2023-04-22T04:16:46;11.70;87.50
52036;DHT22;38046;49.448;32.074;2023-04-22T04:19:12;11.80;87.20
52036;DHT22;38046;49.448;32.074;2023-04-22T04:21:38;11.90;87.50
52036;DHT22;38046;49.448;32.074;2023-04-22T04:24:05;12.00;88.20
52036;DHT22;38046;49.448;32.074;2023-04-22T04:26:30;12.30;88.10
52036;DHT22;38046;49.448;32.074;2023-04-22T04:28:58;12.70;87.80
52036;DHT22;38046;49.448;32.074;2023-04-22T04:31:29;13.00;87.20
52036;DHT22;38046;49.448;32.074;2023-04-22T04:33:54;13.40;86.40
52036;DHT22;38046;49.448;32.074;2023-04-22T04:36:22;13.80;85.30
52036;DHT22;38046;49.448;32.074;2023-04-22T04:38:50;14.10;84.50
52036;DHT22;38046;49.448;32.074;2023-04-22T04:41:16;14.50;83.80
52036;DHT22;38046;49.448;32.074;2023-04-22T04:43:45;14.90;82.70
52036;DHT22;38046;49.448;32.074;2023-04-22T04:46:12;15.30;81.60
52036;DHT22;38046;49.448;32.074;2023-04-22T04:48:40;15.80;80.70
52036;DHT22;38046;49.448;32.074;2023-04-22T04:51:07;16.20;79.60
52036;DHT22;38046;49.448;32.074;2023-04-22T04:53:33;16.50;78.20
52036;DHT22;38046;49.448;32.074;2023-04-22T04:55:59;16.80;77.10
52036;DHT22;38046;49.448;32.074;2023-04-22T04:58:24;16.90;76.30
52036;DHT22;38046;49.448;32.074;2023-04-22T05:00:50;17.00;75.60
52036;DHT22;38046;49.448;32.074;2023-04-22T05:03:16;17.10;75.30
52036;DHT22;38046;49.448;32.074;2023-04-22T05:05:41;17.20;75.30
52036;DHT22;38046;49.448;32.074;2023-04-22T05:08:07;17.50;74.80
52036;DHT22;38046;49.448;32.074;2023-04-22T05:10:33;17.70;73.80
52036;DHT22;38046;49.448;32.074;2023-04-22T05:12:58;17.80;73.50
52036;DHT22;38046;49.448;32.074;2023-04-22T05:15:24;18.00;73.20
52036;DHT22;38046;49.448;32.074;2023-04-22T05:17:50;18.30;72.90
52036;DHT22;38046;49.448;32.074;2023-04-22T05:20:15;18.60;72.40
52036;DHT22;38046;49.448;32.074;2023-04-22T05:22:41;18.90;71.60
52036;DHT22;38046;49.448;32.074;2023-04-22T05:25:09;19.10;70.60
52036;DHT22;38046;49.448;32.074;2023-04-22T05:27:35;19.30;70.00
52036;DHT22;38046;49.448;32.074;2023-04-22T05:30:01;19.50;68.90
52036;DHT22;38046;49.448;32.074;2023-04-22T05:32:26;19.60;67.50
52036;DHT22;38046;49.448;32.074;2023-04-22T05:34:52;19.60;66.50
52036;DHT22;38046;49.448;32.074;2023-04-22T05:37:17;19.30;66.20
52036;DHT22;38046;49.448;32.074;2023-04-22T05:39:43;18.90;66.20
52036;DHT22;38046;49.448;32.074;2023-04-22T05:42:09;18.50;66.50
52036;DHT22;38046;49.448;32.074;2023-04-22T05:44:35;18.10;67.20
52036;DHT22;38046;49.448;32.074;2023-04-22T05:47:00;17.60;67.70
52036;DHT22;38046;49.448;32.074;2023-04-22T05:49:26;17.30;68.20
52036;DHT22;38046;49.448;32.074;2023-04-22T05:51:51;16.90;68.90
52036;DHT22;38046;49.448;32.074;2023-04-22T05:54:17;16.70;69.40
52036;DHT22;38046;49.448;32.074;2023-04-22T05:56:43;16.40;70.00
52036;DHT22;38046;49.448;32.074;2023-04-22T05:59:09;16.20;70.30
52036;DHT22;38046;49.448;32.074;2023-04-22T06:01:35;16.00;70.80
52036;DHT22;38046;49.448;32.074;2023-04-22T06:04:02;15.80;71.10
52036;DHT22;38046;49.448;32.074;2023-04-22T06:06:30;15.70;71.60
52036;DHT22;38046;49.448;32.074;2023-04-22T06:08:56;15.60;71.90
52036;DHT22;38046;49.448;32.074;2023-04-22T06:11:22;15.50;72.00
52036;DHT22;38046;49.448;32.074;2023-04-22T06:13:47;15.40;72.20
52036;DHT22;38046;49.448;32.074;2023-04-22T06:16:13;15.30;72.40
52036;DHT22;38046;49.448;32.074;2023-04-22T06:18:38;15.20;72.80
52036;DHT22;38046;49.448;32.074;2023-04-22T06:21:04;15.10;73.00
52036;DHT22;38046;49.448;32.074;2023-04-22T06:23:30;15.10;73.10
52036;DHT22;38046;49.448;32.074;2023-04-22T06:25:55;15.00;73.10
52036;DHT22;38046;49.448;32.074;2023-04-22T06:28:23;14.90;73.50
52036;DHT22;38046;49.448;32.074;2023-04-22T06:30:48;14.90;73.80
52036;DHT22;38046;49.448;32.074;2023-04-22T06:33:14;14.80;74.10
52036;DHT22;38046;49.448;32.074;2023-04-22T06:35:39;14.80;74.20
52036;DHT22;38046;49.448;32.074;2023-04-22T06:38:05;14.80;74.30
52036;DHT22;38046;49.448;32.074;2023-04-22T06:40:31;14.80;74.60
52036;DHT22;38046;49.448;32.074;2023-04-22T06:42:56;14.70;74.70
52036;DHT22;38046;49.448;32.074;2023-04-22T06:45:23;14.70;75.00
52036;DHT22;38046;49.448;32.074;2023-04-22T06:47:51;14.70;75.00
52036;DHT22;38046;49.448;32.074;2023-04-22T06:50:18;14.70;74.80
52036;DHT22;38046;49.448;32.074;2023-04-22T06:52:44;14.70;74.70
52036;DHT22;38046;49.448;32.074;2023-04-22T06:55:09;14.70;74.30
52036;DHT22;38046;49.448;32.074;2023-04-22T06:57:35;14.70;74.10
52036;DHT22;38046;49.448;32.074;2023-04-22T07:00:02;14.70;74.00
52036;DHT22;38046;49.448;32.074;2023-04-22T07:02:28;14.70;74.20
52036;DHT22;38046;49.448;32.074;2023-04-22T07:04:54;14.70;74.10
52036;DHT22;38046;49.448;32.074;2023-04-22T07:07:20;14.70;74.10
52036;DHT22;38046;49.448;32.074;2023-04-22T07:09:45;14.70;74.00
52036;DHT22;38046;49.448;32.074;2023-04-22T07:12:11;14.70;73.80
52036;DHT22;38046;49.448;32.074;2023-04-22T07:14:37;14.70;73.80
52036;DHT22;38046;49.448;32.074;2023-04-22T07:17:02;14.70;73.80
52036;DHT22;38046;49.448;32.074;2023-04-22T07:19:28;14.80;73.90
52036;DHT22;38046;49.448;32.074;2023-04-22T07:21:54;14.80;73.60
52036;DHT22;38046;49.448;32.074;2023-04-22T07:24:20;14.80;73.10
52036;DHT22;38046;49.448;32.074;2023-04-22T07:26:45;14.80;72.60
52036;DHT22;38046;49.448;32.074;2023-04-22T07:29:11;14.80;72.00
52036;DHT22;38046;49.448;32.074;2023-04-22T07:31:39;14.80;71.70
52036;DHT22;38046;49.448;32.074;2023-04-22T07:34:05;14.80;71.80
52036;DHT22;38046;49.448;32.074;2023-04-22T07:36:31;14.80;71.60
52036;DHT22;38046;49.448;32.074;2023-04-22T07:38:57;14.90;71.40
52036;DHT22;38046;49.448;32.074;2023-04-22T07:41:23;14.90;71.20
52036;DHT22;38046;49.448;32.074;2023-04-22T07:43:49;14.90;71.00
52036;DHT22;38046;49.448;32.074;2023-04-22T07:46:14;14.90;70.70
52036;DHT22;38046;49.448;32.074;2023-04-22T07:48:40;15.00;70.60
52036;DHT22;38046;49.448;32.074;2023-04-22T07:51:06;15.00;70.40
52036;DHT22;38046;49.448;32.074;2023-04-22T07:53:31;15.00;69.90
52036;DHT22;38046;49.448;32.074;2023-04-22T07:55:57;15.00;69.70
52036;DHT22;38046;49.448;32.074;2023-04-22T07:58:23;14.90;69.40
52036;DHT22;38046;49.448;32.074;2023-04-22T08:00:48;14.90;69.40
52036;DHT22;38046;49.448;32.074;2023-04-22T08:03:14;14.90;69.30
52036;DHT22;38046;49.448;32.074;2023-04-22T08:05:39;14.90;69.40
52036;DHT22;38046;49.448;32.074;2023-04-22T08:08:05;14.90;69.10
52036;DHT22;38046;49.448;32.074;2023-04-22T08:10:31;14.90;68.90
52036;DHT22;38046;49.448;32.074;2023-04-22T08:12:57;14.90;68.50
52036;DHT22;38046;49.448;32.074;2023-04-22T08:15:22;14.90;68.00
52036;DHT22;38046;49.448;32.074;2023-04-22T08:17:48;14.90;67.60
52036;DHT22;38046;49.448;32.074;2023-04-22T08:20:14;15.00;67.30
52036;DHT22;38046;49.448;32.074;2023-04-22T08:22:40;15.00;67.00
52036;DHT22;38046;49.448;32.074;2023-04-22T08:25:09;15.00;66.80
52036;DHT22;38046;49.448;32.074;2023-04-22T08:27:36;15.00;66.70
52036;DHT22;38046;49.448;32.074;2023-04-22T08:30:03;15.00;66.50
52036;DHT22;38046;49.448;32.074;2023-04-22T08:32:28;15.00;66.40
52036;DHT22;38046;49.448;32.074;2023-04-22T08:34:54;15.00;66.10
52036;DHT22;38046;49.448;32.074;2023-04-22T08:37:20;15.00;66.10
52036;DHT22;38046;49.448;32.074;2023-04-22T08:39:46;15.00;65.90
52036;DHT22;38046;49.448;32.074;2023-04-22T08:42:12;15.00;65.70
52036;DHT22;38046;49.448;32.074;2023-04-22T08:44:38;15.00;65.50
52036;DHT22;38046;49.448;32.074;2023-04-22T08:47:06;15.00;65.60
52036;DHT22;38046;49.448;32.074;2023-04-22T08:49:34;15.00;65.40
52036;DHT22;38046;49.448;32.074;2023-04-22T08:51:59;15.00;65.10
52036;DHT22;38046;49.448;32.074;2023-04-22T08:54:25;15.00;65.10
52036;DHT22;38046;49.448;32.074;2023-04-22T08:56:51;15.00;65.00
52036;DHT22;38046;49.448;32.074;2023-04-22T08:59:19;14.90;65.00
52036;DHT22;38046;49.448;32.074;2023-04-22T09:01:51;14.90;65.00
52036;DHT22;38046;49.448;32.074;2023-04-22T09:04:18;14.90;65.20
52036;DHT22;38046;49.448;32.074;2023-04-22T09:06:44;14.90;65.00
52036;DHT22;38046;49.448;32.074;2023-04-22T09:09:09;14.90;64.90
52036;DHT22;38046;49.448;32.074;2023-04-22T09:11:36;14.90;64.80
52036;DHT22;38046;49.448;32.074;2023-04-22T09:14:05;14.90;64.60
52036;DHT22;38046;49.448;32.074;2023-04-22T09:16:31;14.90;64.70
52036;DHT22;38046;49.448;32.074;2023-04-22T09:18:58;14.90;64.90
52036;DHT22;38046;49.448;32.074;2023-04-22T09:21:27;14.80;64.80
52036;DHT22;38046;49.448;32.074;2023-04-22T09:23:54;14.80;64.80
52036;DHT22;38046;49.448;32.074;2023-04-22T09:26:24;14.80;64.60
52036;DHT22;38046;49.448;32.074;2023-04-22T09:28:51;14.70;64.70
52036;DHT22;38046;49.448;32.074;2023-04-22T09:31:17;14.70;65.00
52036;DHT22;38046;49.448;32.074;2023-04-22T09:33:54;14.60;65.20
52036;DHT22;38046;49.448;32.074;2023-04-22T09:36:25;14.60;65.30
52036;DHT22;38046;49.448;32.074;2023-04-22T09:38:53;14.60;65.20
52036;DHT22;38046;49.448;32.074;2023-04-22T09:41:28;14.50;65.20
52036;DHT22;38046;49.448;32.074;2023-04-22T09:43:56;14.50;65.30
52036;DHT22;38046;49.448;32.074;2023-04-22T09:46:23;14.50;65.10
52036;DHT22;38046;49.448;32.074;2023-04-22T09:48:50;14.40;65.00
52036;DHT22;38046;49.448;32.074;2023-04-22T09:51:18;14.40;65.10
52036;DHT22;38046;49.448;32.074;2023-04-22T09:53:44;14.30;64.90
52036;DHT22;38046;49.448;32.074;2023-04-22T09:56:10;14.30;64.90
52036;DHT22;38046;49.448;32.074;2023-04-22T09:58:39;14.20;64.80
52036;DHT22;38046;49.448;32.074;2023-04-22T10:01:07;14.20;65.10
52036;DHT22;38046;49.448;32.074;2023-04-22T10:03:33;14.10;65.10
52036;DHT22;38046;49.448;32.074;2023-04-22T10:05:58;14.10;65.50
52036;DHT22;38046;49.448;32.074;2023-04-22T10:08:24;14.10;65.80
52036;DHT22;38046;49.448;32.074;2023-04-22T10:10:50;14.00;66.20
52036;DHT22;38046;49.448;32.074;2023-04-22T10:13:15;14.00;66.30
52036;DHT22;38046;49.448;32.074;2023-04-22T10:15:44;14.00;67.00
52036;DHT22;38046;49.448;32.074;2023-04-22T10:18:17;14.00;66.40
52036;DHT22;38046;49.448;32.074;2023-04-22T10:20:44;14.00;66.60
52036;DHT22;38046;49.448;32.074;2023-04-22T10:23:18;14.00;66.70
52036;DHT22;38046;49.448;32.074;2023-04-22T10:25:48;14.00;66.90
52036;DHT22;38046;49.448;32.074;2023-04-22T10:28:16;14.00;67.10
52036;DHT22;38046;49.448;32.074;2023-04-22T10:30:42;14.00;67.20
52036;DHT22;38046;49.448;32.074;2023-04-22T10:36:05;14.10;67.70
52036;DHT22;38046;49.448;32.074;2023-04-22T10:38:37;14.10;67.50
52036;DHT22;38046;49.448;32.074;2023-04-22T10:41:03;14.10;67.70
52036;DHT22;38046;49.448;32.074;2023-04-22T10:43:45;14.10;68.10
52036;DHT22;38046;49.448;32.074;2023-04-22T10:49:17;14.20;68.40
52036;DHT22;38046;49.448;32.074;2023-04-22T10:51:44;14.20;69.10
52036;DHT22;38046;49.448;32.074;2023-04-22T10:57:03;14.30;69.10
52036;DHT22;38046;49.448;32.074;2023-04-22T10:59:29;14.30;69.20
52036;DHT22;38046;49.448;32.074;2023-04-22T11:02:02;14.30;69.40
52036;DHT22;38046;49.448;32.074;2023-04-22T11:04:29;14.30;69.40
52036;DHT22;38046;49.448;32.074;2023-04-22T11:09:48;14.40;69.40
52036;DHT22;38046;49.448;32.074;2023-04-22T11:15:13;14.50;69.50
52036;DHT22;38046;49.448;32.074;2023-04-22T11:17:42;14.50;69.70
52036;DHT22;38046;49.448;32.074;2023-04-22T11:20:10;14.60;69.80
52036;DHT22;38046;49.448;32.074;2023-04-22T11:22:40;14.60;69.70
52036;DHT22;38046;49.448;32.074;2023-04-22T11:25:06;14.70;69.80
52036;DHT22;38046;49.448;32.074;2023-04-22T11:27:33;14.70;69.80
52036;DHT22;38046;49.448;32.074;2023-04-22T11:30:05;14.80;69.80
52036;DHT22;38046;49.448;32.074;2023-04-22T11:32:39;14.90;69.70
52036;DHT22;38046;49.448;32.074;2023-04-22T11:35:10;15.00;69.30
52036;DHT22;38046;49.448;32.074;2023-04-22T11:37:46;15.00;69.00
52036;DHT22;38046;49.448;32.074;2023-04-22T11:40:18;15.10;69.00
52036;DHT22;38046;49.448;32.074;2023-04-22T11:42:46;15.20;69.20
52036;DHT22;38046;49.448;32.074;2023-04-22T11:45:12;15.30;68.60
52036;DHT22;38046;49.448;32.074;2023-04-22T11:47:39;15.30;68.20
52036;DHT22;38046;49.448;32.074;2023-04-22T11:50:07;15.30;68.00
52036;DHT22;38046;49.448;32.074;2023-04-22T11:52:57;15.40;67.60
52036;DHT22;38046;49.448;32.074;2023-04-22T11:55:27;15.40;67.20
52036;DHT22;38046;49.448;32.074;2023-04-22T11:57:59;15.40;67.20
52036;DHT22;38046;49.448;32.074;2023-04-22T12:00:31;15.40;66.70
52036;DHT22;38046;49.448;32.074;2023-04-22T12:03:00;15.50;66.30
52036;DHT22;38046;49.448;32.074;2023-04-22T12:05:36;15.50;66.20
52036;DHT22;38046;49.448;32.074;2023-04-22T12:08:07;15.50;66.30
52036;DHT22;38046;49.448;32.074;2023-04-22T12:10:37;15.50;66.90
52036;DHT22;38046;49.448;32.074;2023-04-22T12:13:03;15.50;66.10
52036;DHT22;38046;49.448;32.074;2023-04-22T12:15:40;15.50;66.00
52036;DHT22;38046;49.448;32.074;2023-04-22T12:18:06;15.50;66.00
52036;DHT22;38046;49.448;32.074;2023-04-22T12:20:33;15.40;65.60
52036;DHT22;38046;49.448;32.074;2023-04-22T12:22:59;15.50;65.20
52036;DHT22;38046;49.448;32.074;2023-04-22T12:25:26;15.50;65.00
52036;DHT22;38046;49.448;32.074;2023-04-22T12:27:51;15.50;64.90
52036;DHT22;38046;49.448;32.074;2023-04-22T12:30:17;15.60;64.70
52036;DHT22;38046;49.448;32.074;2023-04-22T12:32:43;15.60;64.20
52036;DHT22;38046;49.448;32.074;2023-04-22T12:35:08;15.70;63.60
52036;DHT22;38046;49.448;32.074;2023-04-22T12:37:34;15.80;63.40
52036;DHT22;38046;49.448;32.074;2023-04-22T12:40:00;15.80;63.00
52036;DHT22;38046;49.448;32.074;2023-04-22T12:42:25;15.90;62.90
52036;DHT22;38046;49.448;32.074;2023-04-22T12:44:51;15.90;62.40
52036;DHT22;38046;49.448;32.074;2023-04-22T12:47:17;15.90;62.10
52036;DHT22;38046;49.448;32.074;2023-04-22T12:49:43;16.00;62.00
52036;DHT22;38046;49.448;32.074;2023-04-22T12:52:10;16.00;61.60
52036;DHT22;38046;49.448;32.074;2023-04-22T12:54:36;16.00;61.30
52036;DHT22;38046;49.448;32.074;2023-04-22T12:57:02;16.00;61.00
52036;DHT22;38046;49.448;32.074;2023-04-22T12:59:28;16.00;60.80
52036;DHT22;38046;49.448;32.074;2023-04-22T13:01:53;16.00;60.50
52036;DHT22;38046;49.448;32.074;2023-04-22T13:04:20;16.00;60.30
52036;DHT22;38046;49.448;32.074;2023-04-22T13:06:45;15.90;60.00
52036;DHT22;38046;49.448;32.074;2023-04-22T13:09:11;15.90;59.80
52036;DHT22;38046;49.448;32.074;2023-04-22T13:11:37;15.80;59.50
52036;DHT22;38046;49.448;32.074;2023-04-22T13:14:03;15.80;59.40
52036;DHT22;38046;49.448;32.074;2023-04-22T13:16:28;15.70;59.60
52036;DHT22;38046;49.448;32.074;2023-04-22T13:18:54;15.70;60.00
52036;DHT22;38046;49.448;32.074;2023-04-22T13:21:20;15.60;60.30
52036;DHT22;38046;49.448;32.074;2023-04-22T13:23:45;15.50;60.20
52036;DHT22;38046;49.448;32.074;2023-04-22T13:26:11;15.50;60.50
52036;DHT22;38046;49.448;32.074;2023-04-22T13:28:37;15.40;61.00
52036;DHT22;38046;49.448;32.074;2023-04-22T13:31:03;15.40;61.40
52036;DHT22;38046;49.448;32.074;2023-04-22T13:33:28;15.30;61.60
52036;DHT22;38046;49.448;32.074;2023-04-22T13:35:54;15.30;61.50
52036;DHT22;38046;49.448;32.074;2023-04-22T13:38:20;15.20;61.00
52036;DHT22;38046;49.448;32.074;2023-04-22T13:40:45;15.20;60.80
52036;DHT22;38046;49.448;32.074;2023-04-22T13:43:11;15.20;60.60
52036;DHT22;38046;49.448;32.074;2023-04-22T13:45:37;15.20;60.90
52036;DHT22;38046;49.448;32.074;2023-04-22T13:48:03;15.20;60.90
52036;DHT22;38046;49.448;32.074;2023-04-22T13:50:29;15.20;60.80
52036;DHT22;38046;49.448;32.074;2023-04-22T13:52:54;15.20;60.80
52036;DHT22;38046;49.448;32.074;2023-04-22T13:55:20;15.30;60.80
52036;DHT22;38046;49.448;32.074;2023-04-22T13:57:46;15.30;60.80
52036;DHT22;38046;49.448;32.074;2023-04-22T14:00:12;15.30;60.50
52036;DHT22;38046;49.448;32.074;2023-04-22T14:02:38;15.30;60.00
52036;DHT22;38046;49.448;32.074;2023-04-22T14:05:04;15.40;59.80
52036;DHT22;38046;49.448;32.074;2023-04-22T14:07:30;15.40;59.80
52036;DHT22;38046;49.448;32.074;2023-04-22T14:09:55;15.50;59.80
52036;DHT22;38046;49.448;32.074;2023-04-22T14:12:21;15.50;59.90
52036;DHT22;38046;49.448;32.074;2023-04-22T14:14:47;15.60;59.90
52036;DHT22;38046;49.448;32.074;2023-04-22T14:17:12;15.60;59.70
52036;DHT22;38046;49.448;32.074;2023-04-22T14:19:38;15.60;59.50
52036;DHT22;38046;49.448;32.074;2023-04-22T14:22:04;15.60;59.40
52036;DHT22;38046;49.448;32.074;2023-04-22T14:24:31;15.70;59.50
52036;DHT22;38046;49.448;32.074;2023-04-22T14:26:59;15.70;59.40
52036;DHT22;38046;49.448;32.074;2023-04-22T14:29:28;15.70;59.30
52036;DHT22;38046;49.448;32.074;2023-04-22T14:31:56;15.70;59.40
52036;DHT22;38046;49.448;32.074;2023-04-22T14:34:22;15.70;59.30
52036;DHT22;38046;49.448;32.074;2023-04-22T14:36:47;15.70;59.20
52036;DHT22;38046;49.448;32.074;2023-04-22T14:39:13;15.70;59.20
52036;DHT22;38046;49.448;32.074;2023-04-22T14:41:39;15.70;59.20
52036;DHT22;38046;49.448;32.074;2023-04-22T14:44:04;15.70;59.30
52036;DHT22;38046;49.448;32.074;2023-04-22T14:46:30;15.70;59.30
52036;DHT22;38046;49.448;32.074;2023-04-22T14:48:56;15.60;59.40
52036;DHT22;38046;49.448;32.074;2023-04-22T14:51:21;15.60;59.50
52036;DHT22;38046;49.448;32.074;2023-04-22T14:53:47;15.60;59.50
52036;DHT22;38046;49.448;32.074;2023-04-22T14:56:13;15.50;59.50
52036;DHT22;38046;49.448;32.074;2023-04-22T14:58:39;15.50;59.50
52036;DHT22;38046;49.448;32.074;2023-04-22T15:01:05;15.50;59.40
52036;DHT22;38046;49.448;32.074;2023-04-22T15:03:30;15.40;59.30
52036;DHT22;38046;49.448;32.074;2023-04-22T15:05:56;15.40;59.30
52036;DHT22;38046;49.448;32.074;2023-04-22T15:08:22;15.40;59.40
52036;DHT22;38046;49.448;32.074;2023-04-22T15:10:49;15.30;59.40
52036;DHT22;38046;49.448;32.074;2023-04-22T15:13:15;15.30;59.30
52036;DHT22;38046;49.448;32.074;2023-04-22T15:15:41;15.30;59.10
52036;DHT22;38046;49.448;32.074;2023-04-22T15:18:07;15.20;58.90
52036;DHT22;38046;49.448;32.074;2023-04-22T15:20:33;15.20;58.80
52036;DHT22;38046;49.448;32.074;2023-04-22T15:23:00;15.20;58.80
52036;DHT22;38046;49.448;32.074;2023-04-22T15:25:26;15.20;58.80